ADDS TAF Board (Experimental) INFO

IDs: Format: Expanded Condensed

Updated at: 0955 UTC 26 Nov 2014

KCLE - Cleveland/Hopkins In, OH, US

Issued at 0858 UTC 26 Nov 2014
Time0951Z26/10Z26/11Z26/12Z26/13Z26/14Z26/15Z26/16Z26/17Z26/18Z26/19Z26/20Z26/21Z26/22Z
TypeOBSPRVLPRVLPRVLPRVLPRVLPRVLPRVLPRVLPRVLPRVLPRVLPRVLPRVL
VIS10>6>6>6>6>6>6>6>6>6>6>6>6>6
CIG2225252525252525253535353535
CoverOVCOVCOVCOVCOVCOVCOVCOVCOVCOVCOVCOVCOVCOVC
FltCatMVFRMVFRMVFRMVFRMVFRMVFRMVFRMVFRMVFRVFRVFRVFRVFRVFR
WX----------------------------
WDirVRB3003003003003003003003006060606060
WSpd05555555533333
WGst----------------------------
R06/24
XWndVRB55555555-1-1-1-1-1
HWndVRB-2-2-2-2-2-2-2-233333
R10/28
XWndVRB2222222222222
HWndVRB-4-4-4-4-4-4-4-433333
Raw TAF
KCLE 260858Z 2609/2712 30005KT P6SM OVC025
  FM261800 06003KT P6SM SCT020 OVC035


Raw METAR
KCLE 260951Z 00000KT 10SM OVC022 M01/M04 A3019 RMK AO2 SLP230 T10061039
KCLE 260851Z 00000KT 10SM OVC022 00/M05 A3017 RMK AO2 SLP226 T00001050 58015

TAF Board Legend

Hazard VFR MVFR IFR LIFR
Visibility (sm) >5 3≤X≤5 1≤X<3 <1
Ceiling (100 ft) >30 10≤X≤30 5≤X<10 <5
Wind Speed (kt) <10 10≤X<20 20≤X<30 ≥30
Wind Gust (kt) <15 15≤X<25 25≤X<35 ≥35
Weather No Wx Reported VCTS,-TS,-FZRA TS,FZRA +TS,+FZRA


Page loaded:  09:55 UTC  |   01:55 AM Pacific  |   02:55 AM Mountain  |   03:55 AM Central  |   04:55 AM Eastern

 

ADVISORIES

FORECASTS

FORECASTS

OBSERVATIONS

USER TOOLS

ABOUT US